KLDM/LDM METAR and TAF weather

Enter ICAO airport designator
Station Type Date Time Source
KLDM METAR 2019/04/22 19:56 UTC NOAA

KLDM 221956Z AUTO 19016G25KT 10SM CLR 23/06 A2994 RMK AO2 T02270062


Station Type Date Time Source
KLDM Decoded METAR 2019/04/22 19:56 UTC NOAA

Ludington, Mason County Airport, MI, United States (KLDM) 43-58N 86-24W
Apr 22, 2019 - 03:56 PM EDT / 2019.04.22 1956 UTC
Wind: from the S (190 degrees) at 18 MPH (16 KT) gusting to 29 MPH (25 KT):0
Visibility: 10 mile(s):0
Sky conditions: clear
Temperature: 72.9 F (22.7 C)
Dew Point: 43.2 F (6.2 C)
Relative Humidity: 34%
Pressure (altimeter): 29.94 in. Hg (1013 hPa)
ob: KLDM 221956Z AUTO 19016G25KT 10SM CLR 23/06 A2994 RMK AO2 T02270062
cycle: 20

Station Type Date Time Source
KLDM TAF UTC NOAA

Error!

Example: see airport list